Time;durP1;ratioP1;P1;durP2;ratioP2;P2;SDS_P1;SDS_P2;PMS_P1;PMS_P2;Temp;Humidity;BMP_temperature;BMP_pressure;BME280_temperature;BME280_humidity;BME280_pressure;Samples;Min_cycle;Max_cycle;Signal;HPM_P1;HPM_P2
2021/10/29 11:20:15;;;;;;;2.50;0.80;;;;;;;17.56;51.82;98767.94;2308809;68;20214;31
2021/10/29 11:23:24;;;;;;;2.24;0.91;;;;;;;17.71;50.95;98762.06;2342828;69;20106;-81
2021/10/29 11:34:25;;;;;;;2.26;0.70;;;;;;;18.04;50.40;98754.84;2306494;68;20991;-81
2021/10/29 11:38:00;;;;;;;2.90;0.82;;;;;;;18.07;48.23;98751.09;2360936;67;20102;-81
2021/10/29 11:41:15;;;;;;;1.23;0.80;;;;;;;18.06;49.60;98746.72;2356656;68;20144;-82
2021/10/29 11:48:35;;;;;;;1.27;0.73;;;;;;;18.08;49.71;98738.38;2335166;68;20162;-80
2021/10/29 12:00:21;;;;;;;1.98;0.70;;;;;;;18.30;48.99;98716.94;2372019;68;20133;-81
2021/10/29 12:12:29;;;;;;;2.91;0.80;;;;;;;18.51;48.35;98701.59;2347977;68;20255;-81
2021/10/29 12:26:18;;;;;;;1.65;0.70;;;;;;;18.93;48.58;98676.69;2333154;68;20180;-79
2021/10/29 12:29:22;;;;;;;1.24;0.80;;;;;;;19.10;47.49;98673.88;2338580;68;20172;-80
2021/10/29 12:32:58;;;;;;;2.66;0.80;;;;;;;19.27;46.61;98668.78;2339029;65;24283;-79
2021/10/29 13:03:06;;;;;;;3.49;0.74;;;;;;;20.07;43.58;98632.25;2339157;66;64145;-80
2021/10/29 13:06:15;;;;;;;3.70;0.68;;;;;;;20.10;42.94;98628.69;2339322;68;20146;-80
2021/10/29 13:10:27;;;;;;;2.35;0.50;;;;;;;20.09;42.89;98623.72;2341102;68;20425;-81
2021/10/29 13:13:51;;;;;;;0.98;0.57;;;;;;;20.08;42.68;98618.03;2344161;68;20185;-80
2021/10/29 13:17:19;;;;;;;2.44;0.60;;;;;;;20.04;42.41;98612.66;2339160;65;58977;-80
2021/10/29 13:25:49;;;;;;;2.06;0.49;;;;;;;19.95;43.21;98614.41;2336584;68;20195;-81
2021/10/29 14:30:22;;;;;;;1.96;0.61;;;;;;;18.96;45.05;98588.41;2336020;68;20157;-76
2021/10/29 14:33:32;;;;;;;1.59;0.60;;;;;;;18.89;44.92;98586.88;2335579;68;20176;-79
2021/10/29 14:43:03;;;;;;;1.21;0.57;;;;;;;18.69;45.32;98588.56;2336935;68;20252;-80
2021/10/29 14:46:29;;;;;;;5.97;0.74;;;;;;;18.63;45.96;98586.28;2334721;66;20823;-79
2021/10/29 15:04:33;;;;;;;2.39;0.66;;;;;;;18.20;47.71;98577.81;2338084;68;20197;-79
2021/10/29 15:15:07;;;;;;;3.00;0.82;;;;;;;17.88;49.25;98566.41;2325265;68;20142;-80
2021/10/29 15:44:32;;;;;;;1.10;0.50;;;;;;;17.03;51.76;98554.78;2335087;68;20155;-80
2021/10/29 15:47:59;;;;;;;1.13;0.50;;;;;;;16.95;51.77;98553.09;2334467;66;29534;-80
2021/10/29 15:51:04;;;;;;;1.02;0.70;;;;;;;16.86;52.25;98550.66;2332911;68;20521;-80
2021/10/29 15:54:12;;;;;;;0.94;0.60;;;;;;;16.78;52.51;98549.25;2335084;68;20139;-80
2021/10/29 15:57:22;;;;;;;1.24;0.57;;;;;;;16.69;52.81;98545.34;2332889;68;20147;-80
2021/10/29 16:01:35;;;;;;;2.08;0.70;;;;;;;16.60;53.75;98541.44;2331702;66;31254;-80
2021/10/29 16:17:14;;;;;;;1.73;0.70;;;;;;;16.01;56.20;98537.81;2334817;66;33028;-80
2021/10/29 16:20:22;;;;;;;2.50;0.85;;;;;;;15.87;57.27;98539.06;2334850;68;20767;-80
2021/10/29 16:23:28;;;;;;;3.26;0.91;;;;;;;15.71;57.96;98539.63;2330594;68;20235;-80
2021/10/29 16:26:31;;;;;;;2.61;1.38;;;;;;;15.55;58.54;98539.31;2336930;68;20147;-80
2021/10/29 16:29:35;;;;;;;2.21;1.70;;;;;;;15.38;60.14;98538.03;2337135;68;20183;-80
2021/10/29 16:36:05;;;;;;;2.63;1.36;;;;;;;15.04;61.17;98535.38;2335829;68;20143;-80
2021/10/29 16:39:28;;;;;;;62.46;33.26;;;;;;;14.88;61.19;98538.69;2335922;68;20176;-80
2021/10/29 16:42:31;;;;;;;33.74;16.35;;;;;;;14.75;61.57;98541.94;2338075;68;20195;-80
2021/10/29 16:45:41;;;;;;;23.46;19.25;;;;;;;14.65;61.79;98546.75;2334444;66;45870;-80
2021/10/29 16:48:44;;;;;;;11.04;8.36;;;;;;;14.56;62.05;98547.47;2337817;68;20155;-80
2021/10/29 16:51:47;;;;;;;8.84;4.97;;;;;;;14.47;62.44;98548.69;2331543;68;20179;-80
2021/10/29 16:54:49;;;;;;;5.29;4.15;;;;;;;14.39;63.08;98554.00;2336051;68;20147;-80
2021/10/29 16:57:52;;;;;;;5.26;2.95;;;;;;;14.27;64.30;98556.06;2332626;68;20163;-80
2021/10/29 17:00:55;;;;;;;6.10;3.74;;;;;;;14.15;64.78;98560.34;2335894;68;20154;-80
2021/10/29 17:03:58;;;;;;;4.30;2.89;;;;;;;14.03;65.48;98562.94;2334482;68;20205;-80
2021/10/29 17:07:00;;;;;;;5.57;2.64;;;;;;;13.91;65.99;98566.34;2335650;68;20127;-79
2021/10/29 17:10:11;;;;;;;4.60;1.89;;;;;;;13.79;66.64;98571.50;2332867;68;20171;-80
2021/10/29 17:13:14;;;;;;;3.21;1.90;;;;;;;13.67;67.23;98575.25;2334209;68;20151;-80
2021/10/29 17:16:16;;;;;;;4.56;2.14;;;;;;;13.58;67.14;98579.16;2333608;66;37343;-80
2021/10/29 17:19:19;;;;;;;5.71;2.36;;;;;;;13.49;67.42;98582.53;2333689;68;20154;-80
2021/10/29 17:22:22;;;;;;;3.84;2.30;;;;;;;13.40;67.51;98587.88;2335670;68;20143;-81
2021/10/29 17:25:25;;;;;;;3.39;2.25;;;;;;;13.32;68.11;98592.47;2337280;68;20152;-80
2021/10/29 17:28:28;;;;;;;3.85;2.47;;;;;;;13.22;68.77;98593.84;2340175;68;20599;-80
2021/10/29 17:31:31;;;;;;;20.04;9.43;;;;;;;13.11;69.27;98598.06;2333297;68;20518;-80
2021/10/29 17:34:34;;;;;;;7.68;4.80;;;;;;;13.00;69.72;98598.69;2331095;68;20151;-79
2021/10/29 17:37:36;;;;;;;6.20;3.95;;;;;;;12.89;69.76;98600.09;2332624;68;20151;-80
2021/10/29 17:40:39;;;;;;;10.27;3.60;;;;;;;12.82;69.61;98602.59;2326350;68;20151;-80
2021/10/29 17:43:42;;;;;;;5.56;2.88;;;;;;;12.75;69.57;98605.91;2332244;68;20623;-80
2021/10/29 17:46:45;;;;;;;5.56;2.86;;;;;;;12.70;69.98;98611.41;2331260;66;41456;-79
2021/10/29 17:49:47;;;;;;;7.18;3.74;;;;;;;12.65;70.04;98616.16;2334474;68;20231;-80
2021/10/29 17:52:52;;;;;;;4.29;3.29;;;;;;;12.59;70.62;98619.19;2330653;68;20159;-81
2021/10/29 17:55:57;;;;;;;10.95;9.49;;;;;;;12.52;71.23;98623.06;2333793;68;20159;-80
2021/10/29 17:59:00;;;;;;;22.89;17.39;;;;;;;12.47;71.52;98626.75;2334672;68;20159;-82
2021/10/29 18:02:09;;;;;;;9.20;7.70;;;;;;;12.42;71.64;98630.41;2330971;66;24086;-79
2021/10/29 18:05:14;;;;;;;5.74;4.54;;;;;;;12.39;71.57;98634.28;2331143;68;20288;-80
2021/10/29 18:08:23;;;;;;;7.70;6.19;;;;;;;12.36;71.68;98637.00;2332070;68;20715;-80
2021/10/29 18:11:26;;;;;;;7.78;4.57;;;;;;;12.32;71.93;98640.59;2331530;68;20249;-80
2021/10/29 18:14:28;;;;;;;5.28;4.09;;;;;;;12.30;71.68;98642.84;2332702;68;20163;-80
2021/10/29 18:17:31;;;;;;;5.09;3.51;;;;;;;12.27;72.18;98645.19;2330096;66;25423;-79
2021/10/29 18:20:33;;;;;;;3.78;3.01;;;;;;;12.25;72.01;98647.09;2329664;68;20838;-79
2021/10/29 18:23:37;;;;;;;3.13;2.79;;;;;;;12.23;71.85;98648.91;2329544;68;21014;-79
2021/10/29 18:26:40;;;;;;;3.13;2.63;;;;;;;12.22;71.93;98648.28;2325246;68;20180;-79
2021/10/29 18:29:44;;;;;;;3.74;3.04;;;;;;;12.20;71.92;98647.38;2330601;68;20186;-79
2021/10/29 18:32:47;;;;;;;3.44;2.80;;;;;;;12.18;72.26;98649.72;2329580;66;26371;-79
2021/10/29 18:35:50;;;;;;;5.18;2.55;;;;;;;12.16;72.05;98653.44;2329219;68;20164;-79
2021/10/29 18:38:53;;;;;;;3.81;2.71;;;;;;;12.15;71.87;98653.75;2329870;68;20161;-80
2021/10/29 18:41:56;;;;;;;6.84;4.51;;;;;;;12.14;72.03;98655.94;2330526;68;20159;-79
2021/10/29 18:44:59;;;;;;;5.69;2.66;;;;;;;12.12;72.69;98657.44;2330115;68;20180;-79
2021/10/29 18:48:02;;;;;;;4.26;2.94;;;;;;;12.07;73.31;98657.88;2328845;66;24384;-79
2021/10/29 18:51:05;;;;;;;3.58;2.47;;;;;;;12.01;73.77;98657.94;2331762;68;20162;-79
2021/10/29 18:54:09;;;;;;;3.53;2.86;;;;;;;11.95;73.55;98659.78;2330024;68;20288;-80
2021/10/29 18:57:12;;;;;;;4.95;2.26;;;;;;;11.89;73.64;98660.41;2330050;68;20159;-79
2021/10/29 19:00:16;;;;;;;4.40;2.88;;;;;;;11.83;73.93;98660.47;2327612;68;20242;-79
2021/10/29 19:03:19;;;;;;;3.10;2.80;;;;;;;11.77;74.12;98663.00;2329158;66;25360;-80
2021/10/29 19:06:22;;;;;;;3.38;3.06;;;;;;;11.71;73.73;98664.31;2333366;68;20239;-79
2021/10/29 19:09:26;;;;;;;4.14;2.39;;;;;;;11.66;73.39;98665.16;2330780;68;20228;-80
2021/10/29 19:12:28;;;;;;;3.59;2.00;;;;;;;11.61;73.20;98666.59;2335446;68;20112;-80
2021/10/29 19:15:31;;;;;;;4.66;2.29;;;;;;;11.56;73.59;98665.00;2331593;66;24911;-79
2021/10/29 19:18:34;;;;;;;2.36;2.00;;;;;;;11.51;73.66;98665.28;2331747;68;20166;-80
2021/10/29 19:21:37;;;;;;;4.04;1.61;;;;;;;11.47;73.38;98664.63;2335058;68;20155;-80
2021/10/29 19:24:40;;;;;;;3.91;1.91;;;;;;;11.43;73.11;98663.31;2335421;68;20147;-80
2021/10/29 19:27:43;;;;;;;2.50;1.70;;;;;;;11.40;72.87;98663.91;2332124;68;20644;-79
2021/10/29 19:30:46;;;;;;;2.20;1.52;;;;;;;11.39;72.39;98664.47;2328191;66;23994;-79
2021/10/29 19:33:49;;;;;;;2.54;1.94;;;;;;;11.35;73.10;98663.41;2331011;68;20250;-79
2021/10/29 19:37:36;;;;;;;4.11;2.24;;;;;;;11.31;73.48;98665.34;2331154;68;20147;-79
2021/10/29 19:40:30;;;;;;;2.21;1.90;;;;;;;11.30;72.79;98665.06;2331335;68;20203;-80
2021/10/29 19:43:33;;;;;;;4.51;2.76;;;;;;;11.30;72.87;98665.13;2337724;68;20249;-81
2021/10/29 19:46:37;;;;;;;3.45;2.54;;;;;;;11.29;73.24;98664.38;2333974;68;20183;-80
2021/10/29 19:49:40;;;;;;;4.04;1.71;;;;;;;11.28;73.31;98663.47;2338412;68;20146;-80
2021/10/29 19:52:44;;;;;;;3.60;2.21;;;;;;;11.29;73.05;98663.94;2337606;68;20175;-80
2021/10/29 19:55:48;;;;;;;4.36;2.35;;;;;;;11.30;73.16;98661.72;2340270;68;20843;-80
2021/10/29 19:58:51;;;;;;;3.08;1.61;;;;;;;11.32;73.29;98661.53;2333335;68;20180;-80
2021/10/29 20:01:55;;;;;;;2.05;1.40;;;;;;;11.35;73.02;98659.97;2331052;68;20261;-80
2021/10/29 20:05:05;;;;;;;2.78;1.60;;;;;;;11.39;72.63;98657.19;2333743;68;20259;-80
2021/10/29 20:08:11;;;;;;;3.17;1.25;;;;;;;11.42;72.54;98654.50;2331015;68;20520;-79
2021/10/29 20:11:15;;;;;;;2.44;1.25;;;;;;;11.47;71.74;98654.28;2324341;68;20178;-79
2021/10/29 20:14:21;;;;;;;2.06;1.33;;;;;;;11.52;71.67;98652.03;2320638;68;20264;-79
2021/10/29 20:17:25;;;;;;;2.10;1.24;;;;;;;11.56;71.88;98650.50;2324724;68;20171;-80
2021/10/29 20:20:30;;;;;;;1.46;1.34;;;;;;;11.60;71.39;98650.84;2332215;68;20188;-80
2021/10/29 20:23:40;;;;;;;2.53;1.60;;;;;;;11.63;71.06;98648.72;2332389;68;20143;-80
2021/10/29 20:26:45;;;;;;;2.10;1.30;;;;;;;11.67;70.45;98648.44;2326409;68;20281;-80
2021/10/29 20:29:47;;;;;;;2.86;1.64;;;;;;;11.72;70.03;98649.47;2330987;68;20224;-79
2021/10/29 20:32:51;;;;;;;3.35;2.00;;;;;;;11.75;70.06;98648.84;2328637;68;20151;-79
2021/10/29 20:35:55;;;;;;;6.22;2.10;;;;;;;11.78;69.59;98648.19;2328473;68;20095;-80
2021/10/29 20:39:08;;;;;;;3.92;1.86;;;;;;;11.80;69.38;98648.00;2319257;68;20446;-79
2021/10/29 20:42:21;;;;;;;3.08;1.74;;;;;;;11.85;68.68;98646.28;2332975;68;20163;-79
2021/10/29 20:45:38;;;;;;;4.26;1.83;;;;;;;11.89;68.39;98647.28;2336082;68;20298;-80
2021/10/29 20:48:57;;;;;;;4.47;1.79;;;;;;;11.92;68.50;98647.50;2333780;68;20159;-81
2021/10/29 20:52:13;;;;;;;3.67;1.54;;;;;;;11.91;69.02;98646.38;2335039;68;20171;-79
2021/10/29 20:55:17;;;;;;;3.78;1.48;;;;;;;11.90;69.09;98647.22;2329052;68;20175;-79
2021/10/29 20:58:19;;;;;;;2.30;1.41;;;;;;;11.89;68.98;98646.81;2329853;68;20139;-79
2021/10/29 21:01:27;;;;;;;5.45;1.45;;;;;;;11.87;69.12;98647.59;2344796;68;20103;-82
2021/10/29 21:04:44;;;;;;;1.81;0.99;;;;;;;11.87;68.78;98647.56;2345759;68;20136;-82
2021/10/29 21:08:02;;;;;;;1.33;1.02;;;;;;;11.86;68.81;98645.63;2351332;68;20282;-82
2021/10/29 21:11:26;;;;;;;1.96;1.37;;;;;;;11.86;68.84;98645.13;2342126;68;20108;-81
